createdAt,value
2019-05-05T00:01:10.937Z,64.40
2019-05-05T00:01:49.910Z,64.31
2019-05-05T00:02:49.924Z,64.69
2019-05-05T00:03:49.944Z,64.50
2019-05-05T00:04:49.981Z,64.31
2019-05-05T00:05:50.009Z,64.31
2019-05-05T00:07:11.026Z,64.31
2019-05-05T00:07:50.044Z,64.59
2019-05-05T00:08:50.067Z,64.40
2019-05-05T00:09:50.096Z,64.31
2019-05-05T00:10:50.111Z,64.78
2019-05-05T00:11:50.130Z,64.69
2019-05-05T00:13:11.178Z,64.87
2019-05-05T00:13:50.170Z,64.78
2019-05-05T00:14:50.188Z,65.16
2019-05-05T00:15:50.209Z,65.16
2019-05-05T00:16:50.241Z,65.54
2019-05-05T00:17:50.288Z,65.25
2019-05-05T00:19:11.295Z,65.06
2019-05-05T00:19:50.309Z,65.06
2019-05-05T00:20:50.322Z,64.40
2019-05-05T00:21:50.352Z,64.50
2019-05-05T00:22:50.364Z,64.69
2019-05-05T00:23:50.396Z,64.69
2019-05-05T00:25:11.432Z,65.45
2019-05-05T00:25:50.431Z,65.45
2019-05-05T00:26:50.460Z,65.35
2019-05-05T00:27:50.498Z,65.06
2019-05-05T00:28:50.500Z,65.25
2019-05-05T00:29:50.526Z,65.25
2019-05-05T00:31:11.564Z,65.25
2019-05-05T00:31:50.566Z,64.87
2019-05-05T00:32:50.587Z,65.35
2019-05-05T00:33:50.612Z,65.16
2019-05-05T00:34:50.631Z,65.16
2019-05-05T00:35:50.647Z,64.69
2019-05-05T00:37:11.694Z,64.78
2019-05-05T00:37:50.706Z,65.45
2019-05-05T00:38:50.725Z,64.87
2019-05-05T00:39:50.740Z,64.87
2019-05-05T00:40:50.762Z,64.97
2019-05-05T00:41:50.784Z,65.16
2019-05-05T00:43:11.832Z,65.35
2019-05-05T00:43:50.832Z,65.45
2019-05-05T00:44:50.852Z,65.73
2019-05-05T00:45:50.874Z,65.45
2019-05-05T00:46:50.895Z,65.73
2019-05-05T00:47:50.944Z,65.35
2019-05-05T00:49:11.964Z,65.83
2019-05-05T00:49:50.963Z,65.92
2019-05-05T00:50:51.949Z,65.83
2019-05-05T00:51:51.001Z,66.30
2019-05-05T00:52:51.028Z,65.83
2019-05-05T00:53:51.046Z,65.92
2019-05-05T00:55:12.100Z,65.92
2019-05-05T00:55:51.089Z,66.49
2019-05-05T00:56:51.116Z,66.46
2019-05-05T00:57:51.138Z,66.20
2019-05-05T00:58:51.173Z,65.92
2019-05-05T00:59:51.182Z,66.20
2019-05-05T01:01:14.305Z,66.11
2019-05-05T01:01:51.261Z,66.30
2019-05-05T01:02:51.258Z,66.30
2019-05-05T01:03:51.270Z,66.02
2019-05-05T01:04:51.284Z,66.30
2019-05-05T01:05:51.314Z,66.11
2019-05-05T01:07:14.300Z,65.92
2019-05-05T01:07:51.353Z,65.92
2019-05-05T01:08:51.376Z,66.02
2019-05-05T01:09:51.402Z,66.11
2019-05-05T01:10:51.418Z,66.20
2019-05-05T01:11:51.440Z,66.49
2019-05-05T01:13:12.474Z,66.20
2019-05-05T01:13:51.490Z,66.02
2019-05-05T01:14:51.505Z,66.20
2019-05-05T01:15:51.524Z,66.39
2019-05-05T01:16:51.556Z,66.36
2019-05-05T01:17:51.577Z,66.46
2019-05-05T01:19:12.612Z,66.36
2019-05-05T01:20:01.139Z,66.36
2019-05-05T01:20:51.634Z,66.65
2019-05-05T01:21:51.669Z,66.30
2019-05-05T01:22:51.679Z,66.27
2019-05-05T01:23:51.703Z,66.27
2019-05-05T01:25:14.649Z,66.36
2019-05-05T01:25:51.750Z,66.46
2019-05-05T01:26:51.775Z,66.84
2019-05-05T01:27:51.784Z,66.46
2019-05-05T01:28:51.803Z,66.65
2019-05-05T01:29:51.830Z,66.55
2019-05-05T01:31:14.600Z,67.22
2019-05-05T01:31:51.903Z,66.74
2019-05-05T01:32:51.911Z,66.46
2019-05-05T01:33:51.918Z,66.65
2019-05-05T01:34:51.941Z,66.27
2019-05-05T01:35:51.956Z,66.36
2019-05-05T01:37:15.060Z,66.74
2019-05-05T01:37:52.029Z,66.65
2019-05-05T01:38:52.027Z,66.84
2019-05-05T01:39:54.114Z,67.41
2019-05-05T01:40:52.070Z,67.32
2019-05-05T01:41:54.189Z,66.55
2019-05-05T01:43:14.615Z,67.22
2019-05-05T01:43:54.108Z,67.13
2019-05-05T01:44:52.160Z,67.13
2019-05-05T01:45:52.181Z,66.74
2019-05-05T01:46:52.199Z,66.84
2019-05-05T01:47:52.221Z,67.03
2019-05-05T01:49:14.648Z,67.03
2019-05-05T01:49:54.334Z,66.65
2019-05-05T01:50:54.259Z,67.03
2019-05-05T01:51:52.311Z,67.03
2019-05-05T01:52:52.327Z,66.94
2019-05-05T01:53:54.009Z,66.55
2019-05-05T01:55:14.649Z,67.69
2019-05-05T01:55:54.246Z,67.32
2019-05-05T01:56:52.524Z,66.27
2019-05-05T01:57:54.233Z,66.94
2019-05-05T01:58:54.583Z,66.65
2019-05-05T01:59:52.487Z,67.13
2019-05-05T02:01:15.261Z,67.03
2019-05-05T02:01:52.519Z,66.65
2019-05-05T02:02:52.547Z,67.13
2019-05-05T02:03:54.715Z,66.65
2019-05-05T02:04:52.583Z,67.13
2019-05-05T02:05:54.463Z,66.65
2019-05-05T02:07:14.492Z,67.50
2019-05-05T02:07:52.658Z,67.13
2019-05-05T02:08:54.541Z,66.84
2019-05-05T02:09:52.697Z,67.13
2019-05-05T02:10:54.706Z,67.60
2019-05-05T02:11:54.698Z,67.22
2019-05-05T02:13:15.966Z,67.60
2019-05-05T02:13:54.583Z,67.69
2019-05-05T02:14:54.964Z,67.32
2019-05-05T02:15:55.115Z,67.60
2019-05-05T02:16:54.612Z,67.69
2019-05-05T02:17:54.913Z,67.60
2019-05-05T02:19:14.368Z,67.88
2019-05-05T02:19:54.820Z,67.69
2019-05-05T02:20:54.330Z,67.79
2019-05-05T02:21:54.771Z,67.69
2019-05-05T02:22:54.737Z,67.79
2019-05-05T02:23:54.771Z,67.69
2019-05-05T02:25:14.591Z,68.07
2019-05-05T02:25:55.193Z,67.98
2019-05-05T02:26:54.521Z,67.79
2019-05-05T02:27:54.823Z,67.88
2019-05-05T02:28:54.229Z,68.46
2019-05-05T02:29:54.891Z,67.88
2019-05-05T02:31:16.691Z,68.07
2019-05-05T02:31:55.211Z,68.27
2019-05-05T02:32:55.409Z,68.27
2019-05-05T02:33:56.566Z,68.65
2019-05-05T02:34:56.133Z,68.65
2019-05-05T02:35:55.679Z,68.27
2019-05-05T02:37:16.094Z,68.46
2019-05-05T02:37:55.536Z,68.17
2019-05-05T02:38:56.459Z,68.07
2019-05-05T02:40:02.288Z,68.17
2019-05-05T02:40:54.880Z,68.17
2019-05-05T02:41:54.774Z,68.07
2019-05-05T02:43:15.257Z,68.55
2019-05-05T02:43:55.724Z,68.07
2019-05-05T02:44:54.414Z,68.17
2019-05-05T02:45:55.168Z,68.07
2019-05-05T02:46:55.127Z,68.17
2019-05-05T02:47:54.897Z,68.84
2019-05-05T02:49:15.277Z,69.12
2019-05-05T02:49:54.910Z,69.18
2019-05-05T02:51:00.754Z,68.84
2019-05-05T02:51:55.234Z,69.02
2019-05-05T02:52:53.628Z,69.02
2019-05-05T02:53:53.786Z,68.93
2019-05-05T02:55:14.768Z,68.65
2019-05-05T02:55:53.691Z,68.55
2019-05-05T02:56:54.202Z,68.65
2019-05-05T02:57:54.394Z,68.74
2019-05-05T02:58:53.805Z,69.31
2019-05-05T02:59:54.047Z,69.21
2019-05-05T03:01:14.809Z,69.31
2019-05-05T03:01:53.968Z,69.12
2019-05-05T03:02:53.966Z,68.84
2019-05-05T03:03:54.350Z,69.21
2019-05-05T03:04:53.886Z,68.65
2019-05-05T03:05:53.942Z,68.93
2019-05-05T03:07:14.936Z,68.93
2019-05-05T03:07:54.404Z,68.84
2019-05-05T03:08:54.318Z,69.27
2019-05-05T03:09:54.548Z,69.18
2019-05-05T03:10:54.030Z,69.27
2019-05-05T03:11:54.164Z,69.60
2019-05-05T03:13:15.086Z,69.41
2019-05-05T03:13:54.079Z,69.56
2019-05-05T03:14:54.090Z,69.56
2019-05-05T03:15:54.966Z,69.75
2019-05-05T03:16:54.242Z,69.56
2019-05-05T03:17:54.184Z,69.85
2019-05-05T03:19:15.198Z,69.75
2019-05-05T03:19:54.207Z,69.75
2019-05-05T03:21:03.867Z,69.94
2019-05-05T03:21:54.597Z,69.85
2019-05-05T03:22:54.268Z,69.85
2019-05-05T03:23:54.864Z,70.04
2019-05-05T03:25:15.330Z,69.94
2019-05-05T03:25:54.648Z,69.94
2019-05-05T03:26:54.353Z,69.94
2019-05-05T03:27:54.372Z,69.85
2019-05-05T03:28:54.522Z,70.32
2019-05-05T03:29:54.446Z,70.61
2019-05-05T03:31:16.262Z,70.42
2019-05-05T03:31:56.208Z,70.32
2019-05-05T03:32:55.914Z,70.42
2019-05-05T03:33:55.050Z,70.42
2019-05-05T03:34:54.525Z,70.61
2019-05-05T03:35:54.549Z,70.70
2019-05-05T03:37:15.583Z,70.79
2019-05-05T03:37:54.611Z,70.79
2019-05-05T03:38:54.603Z,70.99
2019-05-05T03:39:54.625Z,71.46
2019-05-05T03:40:54.665Z,71.46
2019-05-05T03:41:54.677Z,70.61
2019-05-05T03:43:15.717Z,71.27
2019-05-05T03:43:56.921Z,70.99
2019-05-05T03:44:54.735Z,71.08
2019-05-05T03:45:54.765Z,70.89
2019-05-05T03:46:54.784Z,70.99
2019-05-05T03:47:54.807Z,71.08
2019-05-05T03:49:15.850Z,70.89
2019-05-05T03:49:54.853Z,70.99
2019-05-05T03:50:54.858Z,71.08
2019-05-05T03:51:54.901Z,70.79
2019-05-05T03:52:54.905Z,70.89
2019-05-05T03:53:54.933Z,70.89
2019-05-05T03:55:15.971Z,70.79
2019-05-05T03:55:54.967Z,71.46
2019-05-05T03:56:55.002Z,71.27
2019-05-05T03:57:55.009Z,70.70
2019-05-05T03:58:57.991Z,71.75
2019-05-05T03:59:55.059Z,71.66
2019-05-05T04:01:16.097Z,71.37
2019-05-05T04:01:55.103Z,72.03
2019-05-05T04:02:55.119Z,71.84
2019-05-05T04:03:55.147Z,71.56
2019-05-05T04:04:55.170Z,71.75
2019-05-05T04:05:55.183Z,71.66
2019-05-05T04:07:17.175Z,71.66
2019-05-05T04:07:55.247Z,71.94
2019-05-05T04:08:55.243Z,71.75
2019-05-05T04:09:55.271Z,71.75
2019-05-05T04:10:55.283Z,72.22
2019-05-05T04:11:55.315Z,72.13
2019-05-05T04:13:17.278Z,72.70
2019-05-05T04:13:55.367Z,72.32
2019-05-05T04:14:55.378Z,72.32
2019-05-05T04:15:55.394Z,72.13
2019-05-05T04:16:55.419Z,71.75
2019-05-05T04:17:55.471Z,72.22
2019-05-05T04:19:16.595Z,71.75
2019-05-05T04:19:55.501Z,71.94
2019-05-05T04:20:55.503Z,71.94
2019-05-05T04:21:55.529Z,71.75
2019-05-05T04:22:58.078Z,71.75
2019-05-05T04:23:55.589Z,71.84
2019-05-05T04:25:16.606Z,71.78
2019-05-05T04:25:55.615Z,71.59
2019-05-05T04:26:55.641Z,71.78
2019-05-05T04:27:55.649Z,71.59
2019-05-05T04:28:55.676Z,71.12
2019-05-05T04:29:55.687Z,71.50
2019-05-05T04:31:16.739Z,71.41
2019-05-05T04:31:55.748Z,71.31
2019-05-05T04:32:55.766Z,70.83
2019-05-05T04:33:55.782Z,70.99
2019-05-05T04:34:55.792Z,70.74
2019-05-05T04:35:55.823Z,70.93
2019-05-05T04:37:16.868Z,70.93
2019-05-05T04:37:55.857Z,70.89
2019-05-05T04:38:55.888Z,70.93
2019-05-05T04:39:55.915Z,71.31
2019-05-05T04:40:55.927Z,70.93
2019-05-05T04:41:55.942Z,70.74
2019-05-05T04:43:17.003Z,71.02
2019-05-05T04:43:55.990Z,70.83
2019-05-05T04:44:56.018Z,70.83
2019-05-05T04:45:56.036Z,71.08
2019-05-05T04:46:56.047Z,71.02
2019-05-05T04:47:56.093Z,70.83
2019-05-05T04:49:17.118Z,71.41
2019-05-05T04:49:56.118Z,70.93
2019-05-05T04:50:56.149Z,70.83
2019-05-05T04:51:56.188Z,70.83
2019-05-05T04:52:56.188Z,71.02
2019-05-05T04:53:56.205Z,71.27
2019-05-05T04:55:17.232Z,70.89
2019-05-05T04:55:56.248Z,70.93
2019-05-05T04:56:56.266Z,70.74
2019-05-05T04:57:56.339Z,71.22
2019-05-05T04:58:56.310Z,70.36
2019-05-05T04:59:56.345Z,71.02
2019-05-05T05:01:17.374Z,70.36
2019-05-05T05:01:56.381Z,70.17
2019-05-05T05:02:56.397Z,69.69
2019-05-05T05:03:56.412Z,69.79
2019-05-05T05:04:56.459Z,69.98
2019-05-05T05:05:56.464Z,69.98
2019-05-05T05:07:17.502Z,70.07
2019-05-05T05:07:58.144Z,69.98
2019-05-05T05:08:56.551Z,69.69
2019-05-05T05:09:56.552Z,70.17
2019-05-05T05:10:56.571Z,69.98
2019-05-05T05:11:56.612Z,69.60
2019-05-05T05:13:17.640Z,69.50
2019-05-05T05:13:56.646Z,69.79
2019-05-05T05:14:56.666Z,69.41
2019-05-05T05:15:56.681Z,69.41
2019-05-05T05:16:56.711Z,69.41
2019-05-05T05:17:56.719Z,69.25
2019-05-05T05:19:17.760Z,68.77
2019-05-05T05:19:56.767Z,68.87
2019-05-05T05:20:56.778Z,69.15
2019-05-05T05:22:01.663Z,68.30
2019-05-05T05:22:56.867Z,68.40
2019-05-05T05:23:56.855Z,68.30
2019-05-05T05:25:17.895Z,69.15
2019-05-05T05:25:56.890Z,69.06
2019-05-05T05:26:56.942Z,68.40
2019-05-05T05:27:56.933Z,68.40
2019-05-05T05:28:56.986Z,68.21
2019-05-05T05:29:57.022Z,68.77
2019-05-05T05:31:18.025Z,68.59
2019-05-05T05:31:57.038Z,68.11
2019-05-05T05:32:57.060Z,68.11
2019-05-05T05:33:57.105Z,68.21
2019-05-05T05:34:57.086Z,68.59
2019-05-05T05:35:57.111Z,68.01
2019-05-05T05:37:18.145Z,67.92
2019-05-05T05:37:57.709Z,67.92
2019-05-05T05:38:57.183Z,68.01
2019-05-05T05:39:57.187Z,67.73
2019-05-05T05:40:57.211Z,68.17
2019-05-05T05:41:57.355Z,69.06
2019-05-05T05:43:18.285Z,68.68
2019-05-05T05:43:57.280Z,68.96
2019-05-05T05:44:57.312Z,69.15
2019-05-05T05:45:57.336Z,68.21
2019-05-05T05:46:57.351Z,68.87
2019-05-05T05:47:57.388Z,69.15
2019-05-05T05:49:18.589Z,68.40
2019-05-05T05:49:57.474Z,68.68
2019-05-05T05:50:57.467Z,68.01
2019-05-05T05:51:57.445Z,68.21
2019-05-05T05:52:57.517Z,68.21
2019-05-05T05:53:57.651Z,68.59
2019-05-05T05:55:18.735Z,68.59
2019-05-05T05:55:57.541Z,67.95
2019-05-05T05:56:57.569Z,68.15
2019-05-05T05:57:57.590Z,68.33
2019-05-05T05:58:57.629Z,68.33
2019-05-05T05:59:57.635Z,67.16
2019-05-05T06:01:18.670Z,67.76
2019-05-05T06:02:09.100Z,67.67
2019-05-05T06:02:57.687Z,67.07
2019-05-05T06:03:57.728Z,67.25
2019-05-05T06:04:57.761Z,67.82
2019-05-05T06:05:57.826Z,68.27
2019-05-05T06:07:18.837Z,69.25
2019-05-05T06:07:57.809Z,69.54
2019-05-05T06:08:57.828Z,69.35
2019-05-05T06:09:57.845Z,69.54
2019-05-05T06:10:57.881Z,69.00
2019-05-05T06:11:57.921Z,68.52
2019-05-05T06:13:18.964Z,67.76
2019-05-05T06:13:57.945Z,67.44
2019-05-05T06:14:57.954Z,68.21
2019-05-05T06:15:57.995Z,68.40
2019-05-05T06:16:58.003Z,69.15
2019-05-05T06:17:58.035Z,68.68
2019-05-05T06:19:19.065Z,68.90
2019-05-05T06:19:58.345Z,68.30
2019-05-05T06:20:58.088Z,68.05
2019-05-05T06:21:58.110Z,69.10
2019-05-05T06:22:58.147Z,68.90
2019-05-05T06:23:58.152Z,68.05
2019-05-05T06:25:19.187Z,68.52
2019-05-05T06:25:58.228Z,68.90
2019-05-05T06:26:58.277Z,68.71
2019-05-05T06:27:58.247Z,68.24
2019-05-05T06:28:58.268Z,67.95
2019-05-05T06:29:58.294Z,68.05
2019-05-05T06:31:19.370Z,68.15
2019-05-05T06:31:58.334Z,68.15
2019-05-05T06:32:58.366Z,67.86
2019-05-05T06:33:58.371Z,67.76
2019-05-05T06:34:58.400Z,68.15
2019-05-05T06:35:58.433Z,67.95
2019-05-05T06:37:19.450Z,67.76
2019-05-05T06:37:58.460Z,68.05
2019-05-05T06:38:58.474Z,67.86
2019-05-05T06:39:58.499Z,67.57
2019-05-05T06:40:58.572Z,68.05
2019-05-05T06:41:58.544Z,67.86
2019-05-05T06:43:19.582Z,67.76
2019-05-05T06:43:58.594Z,67.80
2019-05-05T06:44:58.608Z,67.80
2019-05-05T06:45:58.642Z,67.03
2019-05-05T06:46:58.644Z,67.10
2019-05-05T06:47:58.678Z,66.91
2019-05-05T06:49:19.728Z,67.38
2019-05-05T06:49:58.719Z,67.10
2019-05-05T06:50:58.744Z,66.91
2019-05-05T06:51:58.784Z,67.47
2019-05-05T06:52:58.794Z,66.72
2019-05-05T06:53:58.819Z,67.67
2019-05-05T06:55:19.874Z,68.05
2019-05-05T06:55:58.920Z,68.24
2019-05-05T06:56:58.876Z,68.43
2019-05-05T06:57:58.906Z,69.00
2019-05-05T06:58:58.942Z,68.62
2019-05-05T06:59:58.950Z,68.27
2019-05-05T07:01:20.018Z,67.22
2019-05-05T07:01:59.001Z,68.56
2019-05-05T07:02:59.021Z,67.99
2019-05-05T07:03:59.028Z,67.32
2019-05-05T07:04:59.061Z,67.03
2019-05-05T07:05:59.090Z,68.21
2019-05-05T07:07:20.120Z,67.55
2019-05-05T07:07:59.111Z,66.50
2019-05-05T07:08:59.150Z,66.11
2019-05-05T07:09:59.172Z,66.21
2019-05-05T07:10:59.233Z,66.18
2019-05-05T07:11:59.208Z,66.66
2019-05-05T07:13:20.244Z,66.69
2019-05-05T07:13:59.273Z,65.89
2019-05-05T07:14:59.268Z,65.23
2019-05-05T07:15:59.308Z,66.31
2019-05-05T07:16:59.339Z,65.73
2019-05-05T07:19:59.380Z,64.65
2019-05-05T07:19:59.907Z,64.75
2019-05-05T07:20:59.927Z,64.37
2019-05-05T07:21:59.971Z,63.60
2019-05-05T07:23:02.978Z,64.08
2019-05-05T07:23:59.997Z,63.60
2019-05-05T07:25:24.105Z,63.70
2019-05-05T07:26:00.053Z,63.13
2019-05-05T07:27:00.065Z,64.12
2019-05-05T07:28:00.080Z,64.87
2019-05-05T07:29:00.109Z,64.87
2019-05-05T07:30:00.152Z,63.73
2019-05-05T07:31:21.211Z,62.91
2019-05-05T07:32:00.214Z,63.10
2019-05-05T07:33:00.215Z,64.43
2019-05-05T07:34:00.214Z,66.91
2019-05-05T07:35:00.257Z,62.62
2019-05-05T07:36:03.382Z,62.24
2019-05-05T07:37:23.693Z,59.64
2019-05-05T07:38:00.316Z,59.67
2019-05-05T07:39:00.333Z,60.62
2019-05-05T07:40:00.378Z,61.67
2019-05-05T07:41:00.401Z,61.29
2019-05-05T07:42:00.406Z,59.45
2019-05-05T07:43:21.482Z,59.54
2019-05-05T07:44:00.456Z,59.54
2019-05-05T07:45:00.453Z,60.05
2019-05-05T07:46:00.483Z,60.24
2019-05-05T07:47:00.546Z,60.05
2019-05-05T07:48:01.346Z,59.79
2019-05-05T07:49:21.560Z,59.60
2019-05-05T07:50:00.608Z,57.79
2019-05-05T07:51:02.840Z,64.56
2019-05-05T07:52:00.659Z,63.32
2019-05-05T07:53:12.246Z,57.98
2019-05-05T07:54:00.694Z,55.50
2019-05-05T07:55:23.627Z,55.02
2019-05-05T07:56:00.720Z,60.55
2019-05-05T07:57:00.728Z,60.94
2019-05-05T07:58:00.753Z,57.12
2019-05-05T07:59:00.778Z,57.79
2019-05-05T08:00:00.807Z,55.41
2019-05-05T08:01:21.853Z,52.83
2019-05-05T08:02:00.845Z,51.78
2019-05-05T08:03:00.867Z,52.92
2019-05-05T08:04:00.882Z,53.02
2019-05-05T08:05:00.931Z,52.07
2019-05-05T08:06:00.938Z,52.45
2019-05-05T08:07:23.953Z,54.55
2019-05-05T08:08:00.982Z,53.14
2019-05-05T08:09:01.017Z,52.38
2019-05-05T08:10:01.023Z,51.50
2019-05-05T08:11:01.051Z,50.83
2019-05-05T08:12:01.068Z,51.50
2019-05-05T08:13:24.183Z,51.59
2019-05-05T08:14:01.117Z,50.83
2019-05-05T08:15:01.184Z,51.12
2019-05-05T08:16:01.169Z,53.43
2019-05-05T08:17:01.194Z,53.24
2019-05-05T08:18:01.225Z,51.50
2019-05-05T08:19:24.057Z,50.35
2019-05-05T08:20:01.258Z,49.30
2019-05-05T08:21:01.278Z,49.97
2019-05-05T08:22:03.524Z,50.45
2019-05-05T08:23:01.328Z,51.59
2019-05-05T08:24:01.351Z,51.21
2019-05-05T08:25:34.465Z,51.78
2019-05-05T08:26:01.400Z,53.33
2019-05-05T08:27:01.519Z,49.80
2019-05-05T08:28:01.457Z,52.09
2019-05-05T08:29:01.462Z,49.42
2019-05-05T08:30:03.123Z,50.18
2019-05-05T08:31:24.855Z,51.17
2019-05-05T08:32:01.530Z,50.98
2019-05-05T08:33:01.558Z,50.40
2019-05-05T08:34:03.329Z,47.23
2019-05-05T08:35:01.613Z,49.16
2019-05-05T08:36:01.621Z,51.29
2019-05-05T08:37:23.662Z,49.95
2019-05-05T08:38:01.670Z,47.56
2019-05-05T08:39:03.628Z,45.43
2019-05-05T08:40:01.717Z,46.18
2019-05-05T08:41:01.765Z,46.06
2019-05-05T08:42:04.117Z,46.25
2019-05-05T08:43:24.148Z,45.99
2019-05-05T08:44:03.673Z,45.99
2019-05-05T08:45:04.544Z,46.06
2019-05-05T08:46:01.866Z,47.02
2019-05-05T08:47:01.871Z,47.13
2019-05-05T08:48:01.925Z,46.34
2019-05-05T08:49:24.413Z,46.15
2019-05-05T08:50:04.061Z,48.07
2019-05-05T08:51:01.982Z,50.57
2019-05-05T08:52:03.944Z,49.93
2019-05-05T08:53:04.279Z,48.90
2019-05-05T08:54:03.882Z,48.04
2019-05-05T08:55:24.879Z,46.39
2019-05-05T08:56:04.007Z,48.04
2019-05-05T08:57:04.053Z,49.40
2019-05-05T08:58:04.357Z,46.70
2019-05-05T08:59:03.651Z,46.01
2019-05-05T09:00:02.199Z,45.89
2019-05-05T09:01:23.788Z,45.79
2019-05-05T09:02:04.313Z,46.08
2019-05-05T09:03:03.824Z,46.08
2019-05-05T09:04:04.101Z,46.18
2019-05-05T09:05:04.207Z,47.42
2019-05-05T09:06:04.528Z,48.78
2019-05-05T09:07:24.346Z,48.30
2019-05-05T09:08:04.421Z,48.49
2019-05-05T09:09:03.884Z,45.25
2019-05-05T09:10:03.882Z,44.56
2019-05-05T09:11:04.529Z,46.11
2019-05-05T09:12:04.419Z,44.87
2019-05-05T09:13:24.694Z,44.84
2019-05-05T09:14:04.125Z,45.01
2019-05-05T09:15:04.395Z,46.06
2019-05-05T09:16:03.810Z,46.92
2019-05-05T09:17:04.447Z,47.58
2019-05-05T09:18:04.783Z,46.94
2019-05-05T09:19:24.116Z,47.52
2019-05-05T09:20:04.566Z,48.21
2019-05-05T09:21:04.377Z,49.07
2019-05-05T09:22:04.876Z,47.92
2019-05-05T09:23:04.140Z,47.73
2019-05-05T09:24:05.291Z,46.39
2019-05-05T09:25:23.789Z,45.82
2019-05-05T09:26:04.426Z,46.42
2019-05-05T09:27:03.650Z,46.32
2019-05-05T09:28:05.930Z,45.96
2019-05-05T09:29:04.388Z,45.20
2019-05-05T09:30:03.932Z,43.55
2019-05-05T09:31:24.030Z,44.34
2019-05-05T09:32:04.030Z,44.91
2019-05-05T09:33:03.558Z,45.22
2019-05-05T09:34:04.138Z,43.21
2019-05-05T09:35:04.743Z,43.21
2019-05-05T09:36:04.676Z,43.12
2019-05-05T09:37:24.697Z,41.78
2019-05-05T09:38:03.977Z,41.56
2019-05-05T09:39:04.369Z,41.66
2019-05-05T09:40:04.492Z,43.19
2019-05-05T09:41:03.773Z,41.95
2019-05-05T09:42:04.143Z,43.02
2019-05-05T09:43:24.236Z,43.30
2019-05-05T09:44:04.278Z,41.87
2019-05-05T09:45:04.728Z,41.64
2019-05-05T09:46:03.885Z,41.26
2019-05-05T09:47:04.748Z,44.22
2019-05-05T09:48:04.316Z,43.95
2019-05-05T09:49:24.724Z,44.24
2019-05-05T09:50:03.902Z,41.06
2019-05-05T09:51:04.338Z,42.52
2019-05-05T09:52:05.027Z,42.14
2019-05-05T09:53:04.155Z,41.56
2019-05-05T09:54:11.848Z,42.50
2019-05-05T09:55:24.507Z,42.21
2019-05-05T09:56:04.023Z,41.93
2019-05-05T09:57:04.607Z,42.10
2019-05-05T09:58:04.469Z,42.19
2019-05-05T09:59:03.837Z,43.15
2019-05-05T10:00:04.672Z,45.82
2019-05-05T10:01:24.714Z,45.34
2019-05-05T10:02:04.495Z,45.63
2019-05-05T10:03:03.875Z,44.77
2019-05-05T10:04:04.524Z,43.82
2019-05-05T10:05:04.038Z,43.62
2019-05-05T10:06:04.918Z,43.62
2019-05-05T10:07:24.797Z,42.50
2019-05-05T10:08:03.816Z,41.74
2019-05-05T10:09:03.826Z,40.97
2019-05-05T10:10:04.629Z,39.98
2019-05-05T10:11:04.210Z,38.05
2019-05-05T10:12:04.751Z,37.18
2019-05-05T10:13:24.943Z,32.84
2019-05-05T10:14:04.018Z,29.61
2019-05-05T10:15:07.495Z,26.93
2019-05-05T10:16:04.114Z,23.87
2019-05-05T10:17:04.972Z,22.74
2019-05-05T10:18:04.040Z,21.40
2019-05-05T10:19:25.081Z,19.96
2019-05-05T10:20:04.109Z,20.25
2019-05-05T10:21:04.714Z,19.73
2019-05-05T10:22:04.250Z,19.73
2019-05-05T10:23:04.166Z,20.15
2019-05-05T10:24:04.596Z,22.16
2019-05-05T10:25:25.245Z,23.75
2019-05-05T10:26:04.417Z,22.50
2019-05-05T10:27:04.952Z,23.55
2019-05-05T10:28:04.476Z,25.67
2019-05-05T10:29:04.335Z,26.60
2019-05-05T10:30:04.386Z,27.52
2019-05-05T10:31:25.418Z,29.22
2019-05-05T10:32:04.747Z,30.11
2019-05-05T10:33:04.461Z,30.15
2019-05-05T10:34:04.573Z,29.39
2019-05-05T10:35:04.842Z,25.75
2019-05-05T10:36:04.542Z,23.39
2019-05-05T10:37:25.602Z,25.10
2019-05-05T10:38:04.600Z,25.46
2019-05-05T10:39:04.626Z,27.56
2019-05-05T10:40:04.670Z,28.05
2019-05-05T10:41:04.706Z,27.98
2019-05-05T10:42:04.714Z,27.80
2019-05-05T10:43:25.787Z,23.11
2019-05-05T10:44:04.785Z,21.30
2019-05-05T10:45:04.804Z,20.93
2019-05-05T10:46:04.847Z,19.68
2019-05-05T10:47:04.880Z,20.30
2019-05-05T10:48:04.899Z,19.21
2019-05-05T10:49:25.963Z,19.55
2019-05-05T10:50:05.087Z,21.45
2019-05-05T10:51:04.983Z,22.36
2019-05-05T10:52:05.024Z,24.40
2019-05-05T10:53:05.066Z,27.05
2019-05-05T10:54:05.085Z,29.96
2019-05-05T10:55:26.142Z,28.60
2019-05-05T10:56:05.154Z,28.78
2019-05-05T10:57:05.174Z,29.26
2019-05-05T10:58:05.208Z,29.42
2019-05-05T10:59:05.246Z,29.69
2019-05-05T11:00:12.325Z,29.69
2019-05-05T11:01:26.329Z,30.29
2019-05-05T11:02:05.331Z,30.19
2019-05-05T11:03:05.365Z,29.13
2019-05-05T11:04:05.390Z,30.08
2019-05-05T11:05:05.416Z,29.02
2019-05-05T11:06:05.436Z,29.41
2019-05-05T11:07:26.502Z,31.37
2019-05-05T11:08:05.505Z,28.14
2019-05-05T11:09:05.518Z,25.36
2019-05-05T11:10:05.560Z,24.30
2019-05-05T11:11:05.573Z,23.83
2019-05-05T11:12:05.609Z,23.67
2019-05-05T11:13:26.662Z,23.68
2019-05-05T11:14:05.688Z,21.19
2019-05-05T11:15:05.695Z,21.61
2019-05-05T11:16:05.736Z,21.00
2019-05-05T11:17:05.751Z,19.19
2019-05-05T11:18:05.787Z,16.88
2019-05-05T11:19:26.830Z,17.08
2019-05-05T11:20:05.840Z,20.38
2019-05-05T11:21:05.884Z,23.91
2019-05-05T11:22:05.919Z,25.53
2019-05-05T11:23:05.936Z,26.76
2019-05-05T11:24:05.970Z,27.52
2019-05-05T11:25:27.019Z,27.90
2019-05-05T11:26:06.023Z,28.37
2019-05-05T11:27:06.060Z,29.04
2019-05-05T11:28:06.089Z,30.97
2019-05-05T11:29:06.114Z,31.75
2019-05-05T11:30:06.153Z,31.66
2019-05-05T11:31:27.189Z,30.97
2019-05-05T11:32:06.222Z,32.71
2019-05-05T11:33:06.248Z,30.87
2019-05-05T11:34:06.275Z,29.91
2019-05-05T11:35:06.294Z,29.24
2019-05-05T11:36:06.327Z,29.45
2019-05-05T11:37:27.372Z,31.37
2019-05-05T11:38:06.386Z,32.06
2019-05-05T11:39:06.459Z,31.29
2019-05-05T11:40:06.433Z,30.33
2019-05-05T11:41:06.472Z,30.51
2019-05-05T11:42:06.511Z,29.64
2019-05-05T11:43:27.551Z,29.27
2019-05-05T11:44:06.547Z,29.45
2019-05-05T11:45:06.593Z,29.16
2019-05-05T11:46:06.608Z,27.59
2019-05-05T11:47:06.610Z,29.50
2019-05-05T11:48:06.651Z,31.63
2019-05-05T11:49:27.745Z,32.28
2019-05-05T11:50:06.711Z,33.03
2019-05-05T11:51:06.745Z,32.07
2019-05-05T11:52:06.755Z,33.24
2019-05-05T11:53:06.791Z,31.38
2019-05-05T11:54:06.830Z,30.90
2019-05-05T11:55:27.870Z,32.14
2019-05-05T11:56:06.885Z,33.97
2019-05-05T11:57:06.921Z,34.06
2019-05-05T11:58:06.929Z,34.56
2019-05-05T11:59:06.956Z,34.18
2019-05-05T12:00:06.986Z,32.73
2019-05-05T12:01:28.017Z,32.04
2019-05-05T12:02:07.031Z,32.04
2019-05-05T12:03:07.066Z,35.00
2019-05-05T12:04:07.071Z,35.69
2019-05-05T12:05:07.130Z,34.18
2019-05-05T12:06:07.123Z,34.56
2019-05-05T12:07:28.168Z,32.46
2019-05-05T12:08:07.174Z,31.21
2019-05-05T12:09:07.208Z,30.72
2019-05-05T12:10:07.233Z,33.12
2019-05-05T12:11:07.266Z,33.01
2019-05-05T12:12:07.285Z,32.06
2019-05-05T12:13:28.364Z,31.95
2019-05-05T12:14:07.345Z,32.71
2019-05-05T12:15:07.359Z,33.38
2019-05-05T12:16:07.404Z,34.34
2019-05-05T12:17:07.405Z,34.91
2019-05-05T12:18:07.455Z,35.28
2019-05-05T12:19:28.486Z,35.66
2019-05-05T12:20:07.493Z,36.43
2019-05-05T12:21:07.511Z,36.61
2019-05-05T12:22:07.544Z,36.80
2019-05-05T12:23:07.564Z,36.43
2019-05-05T12:24:07.602Z,35.75
2019-05-05T12:25:28.927Z,35.20
2019-05-05T12:26:07.639Z,35.00
2019-05-05T12:27:07.672Z,33.94
2019-05-05T12:28:07.698Z,34.51
2019-05-05T12:29:07.702Z,34.22
2019-05-05T12:30:07.741Z,34.13
2019-05-05T12:31:28.799Z,34.42
2019-05-05T12:32:07.789Z,34.42
2019-05-05T12:33:07.831Z,34.51
2019-05-05T12:34:07.836Z,34.42
2019-05-05T12:35:07.880Z,35.18
2019-05-05T12:36:07.888Z,35.66
2019-05-05T12:37:28.957Z,36.43
2019-05-05T12:38:07.939Z,37.59
2019-05-05T12:39:08.030Z,36.54
2019-05-05T12:40:07.990Z,34.14
2019-05-05T12:41:08.024Z,35.39
2019-05-05T12:42:08.052Z,34.34
2019-05-05T12:43:29.088Z,33.00
2019-05-05T12:44:08.088Z,34.43
2019-05-05T12:45:08.144Z,34.14
2019-05-05T12:46:08.155Z,34.36
2019-05-05T12:47:08.172Z,33.57
2019-05-05T12:48:08.219Z,33.97
2019-05-05T12:49:29.242Z,33.87
2019-05-05T12:50:08.258Z,33.97
2019-05-05T12:51:08.269Z,34.36
2019-05-05T12:52:08.304Z,34.45
2019-05-05T12:53:08.324Z,34.26
2019-05-05T12:54:08.347Z,32.73